Time;durP1;ratioP1;P1;durP2;ratioP2;P2;SDS_P1;SDS_P2;PMS_P1;PMS_P2;Temp;Humidity;BMP_temperature;BMP_pressure;BME280_temperature;BME280_humidity;BME280_pressure;Samples;Min_cycle;Max_cycle;Signal;HPM_P1;HPM_P2
2023/08/29 00:01:19;;;;;;;12.98;2.22;;;;;;;18.16;99.03;100729.84;5094952;28;20023;-73
2023/08/29 00:03:45;;;;;;;13.82;2.42;;;;;;;18.14;98.82;100721.09;5093470;28;20028;-75
2023/08/29 00:06:11;;;;;;;13.27;1.90;;;;;;;18.24;98.19;100727.47;5085926;28;20032;-74
2023/08/29 00:08:36;;;;;;;18.08;2.47;;;;;;;18.19;98.36;100713.00;5099810;28;20024;-75
2023/08/29 00:11:05;;;;;;;10.10;1.90;;;;;;;18.21;98.32;100711.69;5094002;28;20043;-75
2023/08/29 00:13:30;;;;;;;13.10;2.22;;;;;;;18.27;98.14;100721.53;5089712;28;20019;-75
2023/08/29 00:15:56;;;;;;;14.90;2.42;;;;;;;18.21;98.72;100730.75;5079229;28;20513;-75
2023/08/29 00:18:22;;;;;;;15.18;2.58;;;;;;;18.10;98.83;100715.31;5097130;28;20024;-75
2023/08/29 00:20:48;;;;;;;9.63;2.10;;;;;;;18.10;99.05;100720.75;5099201;28;20027;-75
2023/08/29 00:23:14;;;;;;;10.02;2.22;;;;;;;18.03;99.32;100720.13;5082588;28;20024;-74
2023/08/29 00:25:39;;;;;;;8.50;1.80;;;;;;;18.16;99.25;100736.09;5093710;28;20035;-74
2023/08/29 00:28:06;;;;;;;12.68;2.30;;;;;;;18.18;99.05;100733.97;5097801;28;20034;-75
2023/08/29 00:30:38;;;;;;;11.60;1.92;;;;;;;18.19;98.89;100732.88;5100637;28;20027;-74
2023/08/29 00:33:05;;;;;;;11.80;2.25;;;;;;;18.10;100.00;100739.81;5108712;28;20024;-74
2023/08/29 00:35:31;;;;;;;13.85;2.00;;;;;;;17.91;100.00;100706.59;5114645;28;20070;-74
2023/08/29 00:37:58;;;;;;;10.90;2.40;;;;;;;18.07;100.00;100721.25;5114831;28;20352;-74
2023/08/29 00:40:30;;;;;;;11.95;1.80;;;;;;;18.12;100.00;100729.53;5106040;28;20041;-74
2023/08/29 00:42:56;;;;;;;11.90;2.17;;;;;;;17.99;100.00;100713.53;5094326;28;20119;-74
2023/08/29 00:45:22;;;;;;;14.05;2.60;;;;;;;18.08;100.00;100731.91;5079756;28;20028;-75
2023/08/29 00:47:47;;;;;;;13.65;2.00;;;;;;;18.06;100.00;100725.88;5086326;28;20038;-74
2023/08/29 00:50:13;;;;;;;12.18;2.40;;;;;;;18.07;100.00;100721.25;5083763;28;20056;-75
2023/08/29 00:52:39;;;;;;;14.93;2.20;;;;;;;18.08;100.00;100714.75;5077912;28;20056;-75
2023/08/29 00:55:05;;;;;;;12.40;2.30;;;;;;;17.85;100.00;100680.41;5094322;28;20054;-75
2023/08/29 00:57:30;;;;;;;9.63;1.70;;;;;;;18.05;100.00;100718.81;5093486;28;20031;-75
2023/08/29 00:59:56;;;;;;;14.10;2.10;;;;;;;18.06;100.00;100719.63;5078920;28;20048;-75
2023/08/29 01:02:21;;;;;;;15.27;2.47;;;;;;;18.00;100.00;100707.00;5100725;28;20051;-75
2023/08/29 01:04:46;;;;;;;16.17;2.00;;;;;;;18.08;100.00;100722.94;5073092;28;20074;-74
2023/08/29 01:07:12;;;;;;;10.75;1.98;;;;;;;18.14;100.00;100726.53;5095638;28;20093;-75
2023/08/29 01:09:38;;;;;;;9.00;1.80;;;;;;;18.14;100.00;100731.97;5097579;28;20020;-75
2023/08/29 01:12:18;;;;;;;13.20;2.33;;;;;;;18.06;100.00;100714.19;5093559;28;20020;-74
2023/08/29 01:14:58;;;;;;;16.85;2.45;;;;;;;18.08;100.00;100726.47;5097160;28;20158;-75
2023/08/29 01:17:30;;;;;;;12.52;2.17;;;;;;;18.02;100.00;100726.66;5091396;28;20088;-75
2023/08/29 01:19:56;;;;;;;10.75;2.35;;;;;;;18.03;100.00;100723.66;5089652;28;20032;-75
2023/08/29 01:22:37;;;;;;;12.30;2.13;;;;;;;18.08;100.00;100725.66;5079150;28;20498;-75
2023/08/29 01:25:18;;;;;;;15.23;2.00;;;;;;;17.99;100.00;100725.25;5098363;28;20080;-74
2023/08/29 01:27:46;;;;;;;10.82;1.85;;;;;;;18.02;100.00;100730.19;5096186;28;20484;-75
2023/08/29 01:30:14;;;;;;;11.25;1.60;;;;;;;18.00;100.00;100735.06;5098945;28;20073;-74
2023/08/29 01:32:40;;;;;;;15.70;1.92;;;;;;;18.05;100.00;100732.41;5099379;28;20043;-74
2023/08/29 01:35:06;;;;;;;15.77;2.10;;;;;;;18.08;100.00;100723.75;5097934;28;20024;-74
2023/08/29 01:37:32;;;;;;;14.80;2.67;;;;;;;18.13;100.00;100733.88;5097385;28;20012;-75
2023/08/29 01:39:57;;;;;;;9.82;2.03;;;;;;;18.11;100.00;100729.75;5095510;28;20402;-75
2023/08/29 01:42:23;;;;;;;10.93;2.20;;;;;;;18.07;100.00;100723.97;5095714;28;20039;-74
2023/08/29 01:44:49;;;;;;;12.57;2.30;;;;;;;18.13;100.00;100736.59;5100987;28;20024;-75
2023/08/29 01:47:14;;;;;;;14.57;2.50;;;;;;;18.13;100.00;100735.78;5070021;28;20047;-75
2023/08/29 01:49:40;;;;;;;15.82;2.10;;;;;;;18.13;99.64;100742.06;5093934;28;20032;-75
2023/08/29 01:52:06;;;;;;;11.48;2.17;;;;;;;18.02;99.34;100721.22;5099066;28;20108;-75
2023/08/29 01:54:31;;;;;;;16.33;2.50;;;;;;;18.15;99.00;100739.91;5098636;28;20032;-74
2023/08/29 01:56:58;;;;;;;13.45;2.65;;;;;;;18.19;98.62;100734.78;5099853;28;20031;-75
2023/08/29 01:59:25;;;;;;;11.57;2.20;;;;;;;18.16;98.34;100736.09;5098308;28;20024;-75
2023/08/29 02:01:51;;;;;;;16.40;2.40;;;;;;;18.08;98.23;100737.38;5096141;28;20027;-75
2023/08/29 02:04:16;;;;;;;12.07;2.10;;;;;;;18.04;97.85;100727.22;5077245;28;20062;-74
2023/08/29 02:06:42;;;;;;;10.68;2.08;;;;;;;18.01;97.32;100730.44;5098683;28;20031;-75
2023/08/29 02:09:07;;;;;;;11.27;2.33;;;;;;;18.00;96.48;100732.34;5103247;28;20028;-75
2023/08/29 02:11:33;;;;;;;10.07;2.40;;;;;;;17.92;96.57;100735.50;5092575;28;20016;-75
2023/08/29 02:13:58;;;;;;;10.27;1.95;;;;;;;17.86;96.13;100735.66;5075968;28;20058;-75
2023/08/29 02:16:24;;;;;;;6.78;1.70;;;;;;;17.68;95.43;100723.09;5094082;28;20061;-75
2023/08/29 02:18:53;;;;;;;10.88;2.05;;;;;;;17.77;94.57;100736.06;5086721;28;20035;-74
2023/08/29 02:21:19;;;;;;;10.32;2.15;;;;;;;17.74;93.54;100741.97;5077960;28;20081;-75
2023/08/29 02:23:46;;;;;;;9.25;1.73;;;;;;;17.59;92.91;100719.97;5095885;28;20028;-74
2023/08/29 02:26:11;;;;;;;14.32;2.33;;;;;;;17.70;92.30;100738.09;5099976;28;20024;-74
2023/08/29 02:28:38;;;;;;;10.23;2.10;;;;;;;17.66;92.32;100750.56;5089360;28;20028;-75
2023/08/29 02:31:09;;;;;;;11.45;2.35;;;;;;;17.58;92.05;100737.34;5092310;28;20032;-75
2023/08/29 02:33:37;;;;;;;12.90;1.90;;;;;;;17.55;91.49;100744.13;5092378;28;20036;-75
2023/08/29 02:36:04;;;;;;;11.15;1.90;;;;;;;17.35;91.18;100720.13;5097794;28;20051;-75
2023/08/29 02:38:30;;;;;;;8.68;1.80;;;;;;;17.51;90.61;100740.25;5095697;28;20020;-74
2023/08/29 02:40:55;;;;;;;8.98;1.95;;;;;;;17.49;90.26;100745.13;5092292;28;20123;-75
2023/08/29 02:43:21;;;;;;;9.32;1.83;;;;;;;17.48;90.23;100740.75;5096779;28;20032;-73
2023/08/29 02:45:46;;;;;;;9.23;1.65;;;;;;;17.46;89.73;100748.34;5080979;28;20031;-74
2023/08/29 02:48:12;;;;;;;10.95;2.15;;;;;;;17.41;89.79;100745.50;5100266;28;20035;-75
2023/08/29 02:50:38;;;;;;;11.82;2.40;;;;;;;17.36;89.71;100750.88;5097006;28;20039;-75
2023/08/29 02:53:03;;;;;;;6.75;1.70;;;;;;;17.34;89.64;100755.72;5079942;28;20067;-73
2023/08/29 02:55:29;;;;;;;12.68;2.28;;;;;;;17.30;89.29;100747.25;5060423;28;20479;-74
2023/08/29 02:57:55;;;;;;;7.88;1.90;;;;;;;17.27;89.15;100750.44;5081812;28;20108;-74
2023/08/29 03:00:20;;;;;;;15.68;2.33;;;;;;;17.31;88.65;100740.72;5097228;28;20094;-75
2023/08/29 03:02:46;;;;;;;7.68;1.75;;;;;;;17.26;88.50;100743.38;5097908;28;20039;-74
2023/08/29 03:05:11;;;;;;;6.88;1.48;;;;;;;17.25;87.96;100741.72;5079622;28;20028;-75
2023/08/29 03:07:37;;;;;;;10.63;2.03;;;;;;;17.21;87.62;100735.09;5086019;28;20088;-74
2023/08/29 03:10:02;;;;;;;11.55;1.90;;;;;;;17.16;87.12;100728.78;5074881;28;20032;-74
2023/08/29 03:12:28;;;;;;;7.20;1.95;;;;;;;17.31;86.60;100743.44;5059857;28;20031;-74
2023/08/29 03:14:54;;;;;;;9.98;1.42;;;;;;;17.31;86.78;100750.78;5095838;28;20077;-74
2023/08/29 03:17:20;;;;;;;5.57;1.70;;;;;;;17.40;86.59;100748.50;5076372;28;20025;-74
2023/08/29 03:19:47;;;;;;;6.90;1.58;;;;;;;17.38;87.17;100749.56;5075567;28;20052;-74
2023/08/29 03:22:13;;;;;;;9.18;2.00;;;;;;;17.30;87.63;100739.06;5073483;28;20024;-75
2023/08/29 03:24:38;;;;;;;10.15;2.03;;;;;;;17.45;87.74;100743.97;5075714;28;20031;-74
2023/08/29 03:27:04;;;;;;;4.95;1.50;;;;;;;17.34;88.30;100729.34;5085444;28;20054;-74
2023/08/29 03:29:29;;;;;;;7.07;1.40;;;;;;;17.42;89.02;100744.47;5096468;28;20024;-74
2023/08/29 03:31:55;;;;;;;9.23;1.60;;;;;;;17.50;88.84;100748.66;5093673;28;20027;-74
2023/08/29 03:34:20;;;;;;;10.20;1.73;;;;;;;17.52;88.91;100747.34;5096251;28;20122;-74
2023/08/29 03:36:45;;;;;;;12.75;1.98;;;;;;;17.57;88.82;100750.13;5079927;28;20032;-74
2023/08/29 03:39:11;;;;;;;9.45;1.95;;;;;;;17.55;89.59;100743.31;5097577;28;20186;-74
2023/08/29 03:41:38;;;;;;;10.77;1.98;;;;;;;17.47;89.75;100730.94;5089749;28;20048;-74
2023/08/29 03:44:05;;;;;;;8.05;1.88;;;;;;;17.58;90.35;100757.25;5099741;28;20031;-74
2023/08/29 03:46:30;;;;;;;9.35;1.80;;;;;;;17.58;90.55;100748.25;5096197;28;20073;-75
2023/08/29 03:48:56;;;;;;;9.13;1.80;;;;;;;17.51;91.06;100747.59;5096933;28;20032;-74
2023/08/29 03:51:22;;;;;;;7.25;1.73;;;;;;;17.58;91.39;100759.97;5094217;28;20130;-71
2023/08/29 03:53:47;;;;;;;12.70;1.88;;;;;;;17.53;91.46;100745.44;5090841;28;20032;-74
2023/08/29 03:56:13;;;;;;;10.88;2.10;;;;;;;17.66;91.48;100763.34;5099067;28;20028;-73
2023/08/29 03:58:38;;;;;;;12.38;1.92;;;;;;;17.56;91.35;100747.69;5099611;28;20054;-73
2023/08/29 04:01:04;;;;;;;11.02;2.13;;;;;;;17.64;91.56;100762.75;5106756;28;20020;-75
2023/08/29 04:03:30;;;;;;;8.13;1.60;;;;;;;17.54;91.96;100758.78;5096889;28;20028;-73
2023/08/29 04:05:56;;;;;;;9.65;1.98;;;;;;;17.57;92.08;100768.38;5105830;28;20019;-76
2023/08/29 04:08:22;;;;;;;10.70;1.88;;;;;;;17.39;92.42;100753.13;5099666;28;20019;-75
2023/08/29 04:10:47;;;;;;;10.13;1.98;;;;;;;17.45;92.34;100757.56;5102114;28;20051;-74
2023/08/29 04:13:13;;;;;;;11.73;2.00;;;;;;;17.47;92.39;100765.47;5099605;28;20015;-74
2023/08/29 04:15:38;;;;;;;13.35;2.05;;;;;;;17.35;92.35;100760.94;5100422;28;20495;-75
2023/08/29 04:18:05;;;;;;;8.68;1.65;;;;;;;17.37;92.52;100766.13;5077013;28;20033;-74
2023/08/29 04:20:33;;;;;;;8.70;1.83;;;;;;;17.46;92.46;100772.00;5093871;28;20106;-74
2023/08/29 04:23:03;;;;;;;7.32;1.73;;;;;;;17.53;92.19;100778.09;5097258;28;20031;-74
2023/08/29 04:25:33;;;;;;;9.15;1.90;;;;;;;17.56;91.78;100781.16;5096780;28;20486;-74
2023/08/29 04:27:58;;;;;;;9.10;1.45;;;;;;;17.36;92.47;100778.91;5097646;28;20027;-75
2023/08/29 04:30:24;;;;;;;10.35;1.90;;;;;;;17.44;92.68;100798.59;5101000;28;20088;-74
2023/08/29 04:32:50;;;;;;;11.93;1.92;;;;;;;17.47;92.39;100800.84;5099821;28;20040;-76
2023/08/29 04:35:17;;;;;;;7.85;1.67;;;;;;;17.37;92.96;100810.47;5097644;28;20038;-76
2023/08/29 04:37:52;;;;;;;12.68;1.73;;;;;;;17.34;93.56;100810.13;5102541;28;20036;-75
2023/08/29 04:40:18;;;;;;;9.38;1.83;;;;;;;17.33;93.20;100809.31;5095466;28;20023;-75
2023/08/29 04:42:47;;;;;;;9.63;1.92;;;;;;;17.43;92.89;100799.69;5096475;28;20036;-75
2023/08/29 04:45:13;;;;;;;8.65;1.50;;;;;;;17.45;92.40;100801.09;5106420;28;20034;-75
2023/08/29 04:47:38;;;;;;;11.30;2.00;;;;;;;17.49;91.95;100790.56;5100820;28;20052;-76
2023/08/29 04:50:04;;;;;;;9.73;1.73;;;;;;;18.41;87.68;100792.84;5082800;28;20059;-75
2023/08/29 04:52:30;;;;;;;9.73;2.20;;;;;;;18.99;83.72;100796.03;5087091;28;20040;-76
2023/08/29 04:54:56;;;;;;;7.57;2.45;;;;;;;19.66;79.73;100805.75;5082403;28;20027;-77
2023/08/29 04:57:22;;;;;;;13.50;2.15;;;;;;;20.15;76.50;100806.41;5080872;28;20091;-75
2023/08/29 04:59:48;;;;;;;7.35;1.63;;;;;;;20.63;73.98;100799.09;5097095;28;20032;-76
2023/08/29 05:02:26;;;;;;;10.50;1.92;;;;;;;21.06;71.66;100799.81;5085496;28;20031;-79
2023/08/29 05:04:52;;;;;;;10.50;1.60;;;;;;;21.33;69.37;100780.44;5100221;28;20040;-77
2023/08/29 05:07:18;;;;;;;10.75;2.28;;;;;;;21.53;67.77;100790.59;5099336;28;20105;-77
2023/08/29 05:09:44;;;;;;;8.63;1.92;;;;;;;21.98;65.97;100783.47;5101787;28;20036;-77
2023/08/29 05:12:29;;;;;;;7.95;1.88;;;;;;;22.25;64.79;100783.19;5080566;28;20030;-77
2023/08/29 05:15:47;;;;;;;6.82;1.58;;;;;;;22.42;63.88;100779.31;5103920;28;20030;-75
2023/08/29 05:18:19;;;;;;;7.25;1.70;;;;;;;22.41;63.72;100778.47;5103336;28;20031;-78
2023/08/29 05:20:44;;;;;;;7.32;1.92;;;;;;;21.81;65.27;100771.97;5108562;28;20019;-79
2023/08/29 05:23:10;;;;;;;15.20;2.00;;;;;;;20.99;68.59;100754.63;5104127;28;20027;-77
2023/08/29 05:25:35;;;;;;;9.00;1.88;;;;;;;21.03;68.83;100775.72;5098278;28;20028;-77
2023/08/29 05:28:01;;;;;;;8.88;1.70;;;;;;;21.14;68.54;100771.06;5065313;28;20028;-77
2023/08/29 05:30:27;;;;;;;9.48;1.63;;;;;;;21.08;68.21;100763.94;5083624;28;20029;-77
2023/08/29 05:32:53;;;;;;;8.65;1.73;;;;;;;20.78;69.18;100768.22;5099372;28;20032;-76
2023/08/29 05:35:18;;;;;;;7.65;1.40;;;;;;;20.82;69.00;100777.53;5102718;28;20058;-77
2023/08/29 05:37:44;;;;;;;8.50;1.60;;;;;;;20.38;71.17;100793.44;5095756;28;20424;-77
2023/08/29 05:40:10;;;;;;;13.80;1.83;;;;;;;19.76;75.59;100794.91;5098343;28;20059;-76
2023/08/29 05:42:35;;;;;;;12.30;1.90;;;;;;;19.37;78.37;100794.25;5115926;28;20023;-77
2023/08/29 05:45:03;;;;;;;11.88;1.58;;;;;;;19.13;80.31;100799.19;5110936;28;20125;-77
2023/08/29 05:47:28;;;;;;;9.73;1.80;;;;;;;19.10;80.94;100796.97;5098752;28;20020;-76
2023/08/29 05:49:54;;;;;;;8.05;1.80;;;;;;;19.09;81.68;100801.63;5101276;28;20031;-75
2023/08/29 05:52:19;;;;;;;9.75;1.67;;;;;;;19.00;82.46;100789.50;5095226;28;20063;-75
2023/08/29 05:54:46;;;;;;;6.85;1.70;;;;;;;18.64;82.24;100741.88;5084646;28;20095;-75
2023/08/29 05:57:11;;;;;;;8.30;1.83;;;;;;;18.89;82.36;100771.38;5058422;28;20032;-74
2023/08/29 05:59:36;;;;;;;8.73;1.63;;;;;;;18.95;82.24;100773.91;5061274;28;20341;-79
2023/08/29 06:02:03;;;;;;;9.70;1.63;;;;;;;19.01;82.58;100781.09;5082016;28;20032;-77
2023/08/29 06:04:28;;;;;;;6.85;1.50;;;;;;;19.09;82.33;100771.63;5079332;28;20039;-77
2023/08/29 06:06:55;;;;;;;10.23;1.67;;;;;;;19.08;82.45;100761.78;5079451;28;20040;-78
2023/08/29 06:09:20;;;;;;;12.10;2.00;;;;;;;19.13;81.93;100756.38;5079940;28;20039;-77
2023/08/29 06:11:45;;;;;;;7.95;1.58;;;;;;;19.13;81.61;100740.00;5084428;28;20114;-77
2023/08/29 06:14:11;;;;;;;14.82;1.73;;;;;;;19.24;81.50;100739.03;5082046;28;20067;-76
2023/08/29 06:16:36;;;;;;;7.93;1.63;;;;;;;19.21;82.26;100736.84;5100963;28;20046;-76
2023/08/29 06:19:02;;;;;;;9.60;2.08;;;;;;;19.29;82.31;100732.81;5099830;28;20096;-76
2023/08/29 06:21:27;;;;;;;7.80;1.40;;;;;;;19.47;81.46;100732.44;5082606;28;20032;-76
2023/08/29 06:23:53;;;;;;;7.50;1.95;;;;;;;19.58;81.72;100741.53;5100341;28;20043;-77
2023/08/29 06:26:18;;;;;;;8.32;1.60;;;;;;;19.59;81.65;100748.63;5101880;28;20032;-76
2023/08/29 06:28:44;;;;;;;11.52;2.00;;;;;;;19.75;81.06;100740.59;5099382;28;20031;-76
2023/08/29 06:31:09;;;;;;;5.10;1.50;;;;;;;19.68;80.80;100736.16;5102214;28;20030;-77
2023/08/29 06:33:37;;;;;;;8.38;2.00;;;;;;;19.58;80.65;100744.25;5067340;28;20066;-77
2023/08/29 06:36:03;;;;;;;11.50;1.52;;;;;;;19.64;80.10;100761.53;5099091;28;20055;-76
2023/08/29 06:38:30;;;;;;;11.55;1.60;;;;;;;19.45;78.96;100728.31;5097668;28;20032;-75
2023/08/29 06:40:56;;;;;;;10.07;1.38;;;;;;;19.51;78.65;100746.38;5100061;28;20119;-77
2023/08/29 06:43:22;;;;;;;7.00;1.52;;;;;;;19.42;78.58;100737.00;5099874;28;20020;-76
2023/08/29 06:45:48;;;;;;;6.75;1.20;;;;;;;19.56;78.54;100749.13;5097773;28;20024;-76
2023/08/29 06:48:13;;;;;;;8.75;1.77;;;;;;;19.56;78.78;100757.31;5099909;28;20039;-76
2023/08/29 06:50:39;;;;;;;7.32;1.35;;;;;;;19.62;78.53;100764.47;5099889;28;20364;-76
2023/08/29 06:53:05;;;;;;;7.40;1.55;;;;;;;19.69;78.44;100773.28;5099991;28;20060;-77
2023/08/29 06:55:32;;;;;;;7.95;1.48;;;;;;;19.68;78.27;100768.94;5101264;28;20027;-77
2023/08/29 06:57:58;;;;;;;6.57;1.30;;;;;;;19.57;77.90;100763.59;5099565;28;20106;-76
2023/08/29 07:00:23;;;;;;;7.95;1.45;;;;;;;19.56;77.35;100770.97;5100867;28;20504;-77
2023/08/29 07:02:50;;;;;;;8.90;1.40;;;;;;;19.61;76.23;100762.84;5101101;28;20031;-76
2023/08/29 07:05:16;;;;;;;5.40;1.27;;;;;;;19.75;76.11;100752.31;5065372;28;20343;-76
2023/08/29 07:07:41;;;;;;;6.20;1.58;;;;;;;19.66;75.82;100745.69;5098436;28;20036;-76
2023/08/29 07:10:07;;;;;;;5.85;1.48;;;;;;;19.67;75.77;100748.19;5098379;28;20507;-76
2023/08/29 07:12:33;;;;;;;10.23;1.95;;;;;;;19.71;75.29;100751.22;5082249;28;20117;-77
2023/08/29 07:15:00;;;;;;;7.68;1.48;;;;;;;19.59;76.68;100758.72;5082446;28;20036;-76
2023/08/29 07:17:26;;;;;;;5.93;1.30;;;;;;;19.56;76.41;100745.59;5099447;28;20024;-76
2023/08/29 07:19:52;;;;;;;6.43;1.70;;;;;;;19.70;76.03;100755.84;5100642;28;20031;-77
2023/08/29 07:22:18;;;;;;;7.28;1.20;;;;;;;19.73;75.72;100748.22;5083475;28;20023;-76
2023/08/29 07:24:44;;;;;;;5.38;1.33;;;;;;;19.94;74.74;100760.94;5099143;28;20395;-77
2023/08/29 07:27:09;;;;;;;8.60;1.42;;;;;;;19.96;74.20;100758.75;5100369;28;20024;-77
2023/08/29 07:29:35;;;;;;;6.97;1.20;;;;;;;19.81;74.78;100764.94;5100631;28;20031;-77
2023/08/29 07:32:00;;;;;;;6.35;1.40;;;;;;;19.75;74.62;100763.25;5104833;28;20485;-76
2023/08/29 07:34:26;;;;;;;5.38;1.02;;;;;;;19.69;75.09;100773.28;5102949;28;20039;-76
2023/08/29 07:36:51;;;;;;;5.95;1.40;;;;;;;19.90;75.28;100773.44;5085679;28;20024;-77
2023/08/29 07:39:19;;;;;;;8.13;1.73;;;;;;;20.09;75.81;100776.59;5070698;28;20375;-77
2023/08/29 07:41:47;;;;;;;6.47;1.90;;;;;;;20.32;76.06;100778.09;5103985;28;20031;-77
2023/08/29 07:44:12;;;;;;;5.05;1.52;;;;;;;20.17;77.65;100779.66;5086618;28;20103;-77
2023/08/29 07:46:37;;;;;;;7.88;1.60;;;;;;;20.17;78.25;100773.38;5105073;28;20085;-77
2023/08/29 07:49:10;;;;;;;7.60;1.38;;;;;;;20.09;77.14;100788.34;5105271;28;20020;-77
2023/08/29 07:51:35;;;;;;;8.57;1.60;;;;;;;20.05;75.42;100783.69;5103167;28;20060;-76
2023/08/29 07:54:01;;;;;;;6.60;1.33;;;;;;;20.09;75.58;100791.06;5102241;28;20080;-76
2023/08/29 07:56:26;;;;;;;6.13;1.50;;;;;;;20.40;74.60;100794.84;5100935;28;20111;-77
2023/08/29 07:58:52;;;;;;;5.85;1.30;;;;;;;20.61;74.19;100790.31;5101028;28;20032;-77
2023/08/29 08:01:17;;;;;;;10.52;1.50;;;;;;;20.71;74.24;100795.00;5100950;28;20028;-77
2023/08/29 08:03:43;;;;;;;6.85;1.25;;;;;;;20.74;73.89;100763.59;5102531;28;20024;-77
2023/08/29 08:06:09;;;;;;;6.40;1.20;;;;;;;20.63;74.99;100779.94;5100455;28;20157;-77
2023/08/29 08:08:34;;;;;;;10.25;2.17;;;;;;;20.65;74.98;100785.94;5101013;28;20139;-75
2023/08/29 08:10:59;;;;;;;9.25;1.50;;;;;;;20.80;74.35;100798.06;5100680;28;20027;-77
2023/08/29 08:13:25;;;;;;;8.50;1.88;;;;;;;20.64;74.52;100781.59;5100669;28;20050;-77
2023/08/29 08:15:51;;;;;;;8.48;1.30;;;;;;;20.57;74.10;100758.31;5101746;28;20031;-77
2023/08/29 08:18:16;;;;;;;9.93;1.80;;;;;;;20.84;73.24;100791.78;5104357;28;20073;-76
2023/08/29 08:20:42;;;;;;;8.23;1.50;;;;;;;21.11;72.65;100785.31;5101172;28;20040;-77
2023/08/29 08:23:07;;;;;;;6.53;1.30;;;;;;;20.96;71.76;100769.69;5102047;28;20517;-77
2023/08/29 08:25:33;;;;;;;6.22;1.40;;;;;;;21.19;71.65;100776.56;5083235;28;20031;-77
2023/08/29 08:27:59;;;;;;;6.47;1.80;;;;;;;21.28;70.67;100791.34;5101992;28;20028;-77
2023/08/29 08:30:24;;;;;;;8.45;1.40;;;;;;;21.14;70.22;100792.16;5102007;28;20036;-76
2023/08/29 08:32:49;;;;;;;5.63;1.70;;;;;;;21.11;70.25;100794.31;5100401;28;20060;-76
2023/08/29 08:35:15;;;;;;;4.72;1.33;;;;;;;21.01;68.97;100797.03;5102061;28;20023;-77
2023/08/29 08:37:40;;;;;;;7.10;1.20;;;;;;;21.06;69.04;100804.44;5100469;28;20031;-78
2023/08/29 08:40:09;;;;;;;6.22;1.30;;;;;;;21.11;67.56;100802.53;5102242;28;20023;-77
2023/08/29 08:42:43;;;;;;;7.07;1.30;;;;;;;21.34;67.19;100803.97;5099741;28;20024;-77
2023/08/29 08:45:10;;;;;;;;;;;;;;;21.45;66.84;100804.00;5101943;28;20114;-77
2023/08/29 08:47:36;;;;;;;7.88;1.30;;;;;;;21.42;67.78;100801.81;5100467;28;19959;-76
2023/08/29 08:50:03;;;;;;;5.13;1.50;;;;;;;21.37;67.10;100802.63;5102052;28;20122;-76
2023/08/29 08:52:33;;;;;;;8.25;1.23;;;;;;;21.40;67.35;100804.81;5102447;28;20048;-78
2023/08/29 08:54:58;;;;;;;6.53;1.33;;;;;;;21.53;67.07;100803.47;5100785;28;20043;-77
2023/08/29 08:57:24;;;;;;;5.93;1.25;;;;;;;21.32;65.37;100805.31;5084529;28;20153;-77
2023/08/29 08:59:50;;;;;;;7.00;1.15;;;;;;;21.04;66.35;100807.44;5084577;28;20032;-77
2023/08/29 09:02:18;;;;;;;5.60;1.17;;;;;;;21.03;66.07;100819.47;5101539;28;20036;-76
2023/08/29 09:04:44;;;;;;;4.45;1.17;;;;;;;20.81;65.52;100796.97;5101945;28;20035;-77
2023/08/29 09:07:09;;;;;;;6.60;1.30;;;;;;;21.02;65.33;100812.34;5100248;28;20024;-77
2023/08/29 09:09:35;;;;;;;5.35;1.30;;;;;;;21.11;65.98;100823.59;5100045;28;20040;-77
2023/08/29 09:12:00;;;;;;;7.35;1.60;;;;;;;20.86;63.38;100799.69;5100929;28;20062;-77
2023/08/29 09:14:26;;;;;;;5.60;1.58;;;;;;;21.03;63.27;100816.75;5102741;28;20365;-76
2023/08/29 09:17:04;;;;;;;4.32;1.40;;;;;;;21.35;64.08;100815.75;5107453;28;20081;-75
2023/08/29 09:19:33;;;;;;;6.78;1.30;;;;;;;21.52;64.40;100816.34;5085623;28;20032;-77
2023/08/29 09:21:59;;;;;;;6.22;1.40;;;;;;;21.26;64.72;100803.69;5084219;28;20024;-77
2023/08/29 09:24:28;;;;;;;5.90;1.20;;;;;;;21.16;64.69;100815.41;5100872;28;20032;-77
2023/08/29 09:26:53;;;;;;;5.38;1.20;;;;;;;21.21;64.50;100820.91;5102015;28;20024;-77
2023/08/29 09:29:20;;;;;;;6.38;1.30;;;;;;;21.36;64.40;100820.16;5083847;28;20028;-77
2023/08/29 09:31:47;;;;;;;7.07;1.40;;;;;;;21.47;63.90;100821.81;5101436;28;20110;-77
2023/08/29 09:34:32;;;;;;;5.78;1.92;;;;;;;21.41;63.72;100811.94;5101808;28;20032;-77
2023/08/29 09:36:58;;;;;;;3.85;1.02;;;;;;;21.69;64.12;100813.34;5100605;28;20031;-77
2023/08/29 09:39:24;;;;;;;7.28;1.50;;;;;;;21.79;63.40;100802.41;5099422;28;20028;-78
2023/08/29 09:42:09;;;;;;;3.17;1.38;;;;;;;21.86;63.63;100817.75;5101218;28;20049;-77
2023/08/29 09:44:37;;;;;;;7.80;1.70;;;;;;;21.80;61.80;100811.44;5099231;28;20028;-77
2023/08/29 09:47:08;;;;;;;9.40;1.30;;;;;;;21.84;61.58;100808.97;5099022;28;20030;-77
2023/08/29 09:49:43;;;;;;;6.57;1.27;;;;;;;21.98;62.40;100810.84;5089355;28;20028;-78
2023/08/29 09:52:10;;;;;;;5.50;1.10;;;;;;;22.17;61.83;100819.38;5103323;28;20099;-77
2023/08/29 09:54:43;;;;;;;3.55;1.20;;;;;;;22.23;61.30;100823.75;5108738;28;20039;-77
2023/08/29 09:57:10;;;;;;;6.00;1.30;;;;;;;22.15;62.41;100812.50;5103298;28;20031;-78
2023/08/29 09:59:39;;;;;;;5.85;1.35;;;;;;;22.32;62.52;100821.28;5101074;28;20036;-78
2023/08/29 10:02:09;;;;;;;5.40;1.15;;;;;;;22.32;61.72;100817.69;5101451;28;20074;-77
2023/08/29 10:04:37;;;;;;;5.20;1.10;;;;;;;22.28;61.85;100814.69;5101347;28;20537;-77
2023/08/29 10:07:05;;;;;;;4.80;1.20;;;;;;;22.31;61.84;100825.09;5101731;28;20115;-77
2023/08/29 10:09:31;;;;;;;4.47;1.30;;;;;;;22.34;61.52;100824.56;5102265;28;20031;-77
2023/08/29 10:11:58;;;;;;;3.42;1.20;;;;;;;22.37;60.62;100828.66;5102019;28;20024;-77
2023/08/29 10:14:24;;;;;;;6.68;1.13;;;;;;;22.26;60.31;100819.66;5103128;28;20036;-78
2023/08/29 10:16:49;;;;;;;5.65;1.30;;;;;;;22.10;59.19;100815.25;5101627;28;20074;-78
2023/08/29 10:19:16;;;;;;;7.85;1.48;;;;;;;22.33;58.57;100814.69;5101834;28;20036;-78
2023/08/29 10:21:42;;;;;;;4.38;1.10;;;;;;;22.49;58.18;100813.56;5101489;28;20050;-78
2023/08/29 10:24:11;;;;;;;4.28;0.93;;;;;;;22.38;58.13;100811.09;5101406;28;20047;-76
2023/08/29 10:26:38;;;;;;;5.68;1.40;;;;;;;22.40;59.28;100811.66;5102343;28;20020;-78
2023/08/29 10:29:05;;;;;;;10.07;1.58;;;;;;;22.63;60.20;100807.50;5100472;28;20035;-77
2023/08/29 10:31:34;;;;;;;5.28;1.33;;;;;;;22.86;59.84;100811.50;5083811;28;20031;-77
2023/08/29 10:34:03;;;;;;;5.00;1.10;;;;;;;22.94;59.54;100809.03;5101039;28;20103;-77
2023/08/29 10:36:29;;;;;;;2.70;1.00;;;;;;;23.10;58.71;100811.69;5098491;28;20027;-77
2023/08/29 10:38:57;;;;;;;5.10;1.23;;;;;;;23.25;59.55;100816.28;5101113;28;20032;-78
2023/08/29 10:41:23;;;;;;;8.15;1.40;;;;;;;23.29;59.51;100811.88;5102477;28;20058;-77
2023/08/29 10:43:50;;;;;;;5.07;1.20;;;;;;;23.17;60.08;100817.69;5107941;28;20101;-78
2023/08/29 10:46:16;;;;;;;4.28;1.50;;;;;;;23.23;60.19;100816.56;5096327;28;20054;-78
2023/08/29 10:48:41;;;;;;;3.50;1.05;;;;;;;23.14;60.22;100821.00;5106962;28;20107;-75
2023/08/29 10:51:07;;;;;;;4.40;1.50;;;;;;;22.96;60.00;100804.09;5100188;28;20043;-77
2023/08/29 10:53:40;;;;;;;6.57;1.40;;;;;;;23.00;60.33;100798.84;5102893;28;20028;-77
2023/08/29 10:56:09;;;;;;;4.53;1.20;;;;;;;22.97;61.20;100802.97;5090163;28;20086;-76
2023/08/29 10:58:41;;;;;;;7.53;1.40;;;;;;;23.03;61.01;100802.97;5104927;28;20024;-77
2023/08/29 11:01:36;;;;;;;3.33;1.02;;;;;;;23.10;59.79;100801.53;5098441;28;20097;-77
2023/08/29 11:04:11;;;;;;;4.78;1.02;;;;;;;23.13;58.86;100800.16;5101559;28;20024;-77
2023/08/29 11:06:51;;;;;;;3.92;1.25;;;;;;;23.23;57.96;100797.34;5099387;28;20028;-76
2023/08/29 11:09:20;;;;;;;3.88;1.10;;;;;;;23.39;57.93;100792.59;5098524;28;20444;-78
2023/08/29 11:12:12;;;;;;;3.33;1.00;;;;;;;23.56;57.22;100805.91;5100940;28;20050;-77
2023/08/29 11:14:56;;;;;;;5.15;1.13;;;;;;;23.58;57.13;100798.22;5100508;28;20651;-77
2023/08/29 11:17:23;;;;;;;6.30;1.20;;;;;;;23.58;56.68;100807.28;5101033;28;20079;-76
2023/08/29 11:19:57;;;;;;;3.65;1.17;;;;;;;23.74;57.20;100805.28;5083175;28;20047;-77
2023/08/29 11:22:28;;;;;;;5.88;1.23;;;;;;;23.73;57.48;100800.06;5082678;28;20039;-77